Time;durP1;ratioP1;P1;durP2;ratioP2;P2;SDS_P1;SDS_P2;PMS_P1;PMS_P2;Temp;Humidity;BMP_temperature;BMP_pressure;BME280_temperature;BME280_humidity;BME280_pressure;Samples;Min_cycle;Max_cycle;Signal;HPM_P1;HPM_P2
2022/08/10 00:03:34;;;;;;;0.88;0.57;;;;;;;;;;12751808;27;20377;-73
2022/08/10 00:09:36;;;;;;;0.70;0.70;;;;;;;;;;12751773;27;20034;-73
2022/08/10 00:15:38;;;;;;;1.77;0.93;;;;;;;;;;12750991;27;20043;-75
2022/08/10 00:21:40;;;;;;;1.02;0.90;;;;;;;;;;12733658;27;20391;-74
2022/08/10 00:27:41;;;;;;;2.47;0.80;;;;;;;;;;12750528;27;20050;-74
2022/08/10 00:33:43;;;;;;;1.52;0.80;;;;;;;;;;12751301;27;20035;-74
2022/08/10 00:39:46;;;;;;;2.05;0.93;;;;;;;;;;12751189;27;20211;-74
2022/08/10 00:45:47;;;;;;;1.73;0.73;;;;;;;;;;12749649;27;20023;-75
2022/08/10 00:51:49;;;;;;;1.50;0.90;;;;;;;;;;12749145;27;20034;-74
2022/08/10 00:57:51;;;;;;;1.20;0.60;;;;;;;;;;12749712;27;20046;-74
2022/08/10 01:03:53;;;;;;;1.10;0.80;;;;;;;;;;12748659;27;20038;-74
2022/08/10 01:09:55;;;;;;;;;;;;;;;;;;12750548;27;20384;-74
2022/08/10 01:15:56;;;;;;;0.93;0.80;;;;;;;;;;12748034;27;19919;-74
2022/08/10 01:21:58;;;;;;;;;;;;;;;;;;12747873;27;20024;-74
2022/08/10 01:28:00;;;;;;;1.63;1.10;;;;;;;;;;12748682;27;19908;-74
2022/08/10 01:34:04;;;;;;;0.75;0.75;;;;;;;;;;12746846;27;20038;-74
2022/08/10 01:40:08;;;;;;;0.70;0.70;;;;;;;;;;12747012;27;20063;-74
2022/08/10 01:46:12;;;;;;;0.88;0.77;;;;;;;;;;12747699;27;20046;-74
2022/08/10 01:52:16;;;;;;;0.80;0.80;;;;;;;;;;12746231;27;20035;-76
2022/08/10 01:58:19;;;;;;;1.63;1.00;;;;;;;;;;12746920;27;20058;-73
2022/08/10 02:04:22;;;;;;;1.05;0.70;;;;;;;;;;12746342;27;20489;-73
2022/08/10 02:10:24;;;;;;;2.30;0.70;;;;;;;;;;12746325;27;20034;-74
2022/08/10 02:16:26;;;;;;;1.25;0.90;;;;;;;;;;12745249;27;20047;-75
2022/08/10 02:22:29;;;;;;;1.88;0.80;;;;;;;;;;12746351;27;20516;-75
2022/08/10 02:28:32;;;;;;;0.80;0.80;;;;;;;;;;12744798;27;20461;-75
2022/08/10 02:34:35;;;;;;;0.60;0.60;;;;;;;;;;12745945;27;20504;-74
2022/08/10 02:40:39;;;;;;;0.80;0.80;;;;;;;;;;12745733;27;20043;-75
2022/08/10 02:46:46;;;;;;;2.03;0.93;;;;;;;;;;12745275;27;20039;-73
2022/08/10 02:52:49;;;;;;;0.55;0.50;;;;;;;;;;12745075;27;20031;-74
2022/08/10 02:59:05;;;;;;;0.65;0.65;;;;;;;;;;12745064;28;20039;-73
2022/08/10 03:05:10;;;;;;;0.75;0.70;;;;;;;;;;12745424;28;20035;-75
2022/08/10 03:11:16;;;;;;;0.70;0.68;;;;;;;;;;12743598;28;20492;-75
2022/08/10 03:17:17;;;;;;;1.65;0.60;;;;;;;;;;12744468;28;20047;-74
2022/08/10 03:23:19;;;;;;;;;;;;;;;;;;12753116;27;20038;-74
2022/08/10 03:29:22;;;;;;;1.53;0.77;;;;;;;;;;12753351;27;19907;-74
2022/08/10 03:35:24;;;;;;;0.60;0.60;;;;;;;;;;12752986;27;20031;-74
2022/08/10 03:41:34;;;;;;;0.70;0.70;;;;;;;;;;12754105;27;20412;-74
2022/08/10 03:47:40;;;;;;;1.15;0.80;;;;;;;;;;12752231;27;20039;-74
2022/08/10 03:53:43;;;;;;;0.60;0.60;;;;;;;;;;12752025;27;20050;-74
2022/08/10 03:59:45;;;;;;;0.77;0.77;;;;;;;;;;12751448;27;20039;-74
2022/08/10 04:05:46;;;;;;;;;;;;;;;;;;12734650;27;20027;-74
2022/08/10 04:11:48;;;;;;;0.60;0.60;;;;;;;;;;12752446;27;19915;-74
2022/08/10 04:17:50;;;;;;;1.38;0.70;;;;;;;;;;12750965;27;20039;-74
2022/08/10 04:23:53;;;;;;;1.40;1.13;;;;;;;;;;12749992;27;20045;-74
2022/08/10 04:29:55;;;;;;;1.45;1.00;;;;;;;;;;12730491;27;20039;-74
2022/08/10 04:35:57;;;;;;;0.93;0.80;;;;;;;;;;12747072;27;20539;-74
2022/08/10 04:41:59;;;;;;;0.88;0.88;;;;;;;;;;12730640;27;20051;-74
2022/08/10 04:48:01;;;;;;;0.70;0.70;;;;;;;;;;12747089;27;20515;-74
2022/08/10 04:54:03;;;;;;;0.73;0.73;;;;;;;;;;12746739;27;20041;-74
2022/08/10 05:00:04;;;;;;;;;;;;;;;;;;12746949;27;20230;-74
2022/08/10 05:06:06;;;;;;;0.70;0.70;;;;;;;;;;12747496;27;19918;-74
2022/08/10 05:12:08;;;;;;;1.05;0.95;;;;;;;;;;12728620;27;20023;-74
2022/08/10 05:18:10;;;;;;;0.65;0.65;;;;;;;;;;12746814;27;20132;-74
2022/08/10 05:24:12;;;;;;;0.80;0.80;;;;;;;;;;12746023;27;20507;-75
2022/08/10 05:30:14;;;;;;;;;;;;;;;;;;12746680;27;20027;-74
2022/08/10 05:36:15;;;;;;;1.77;1.17;;;;;;;;;;12727422;27;19926;-74
2022/08/10 05:42:19;;;;;;;1.35;0.70;;;;;;;;;;12744538;27;20055;-74
2022/08/10 05:48:21;;;;;;;0.80;0.80;;;;;;;;;;12744247;27;20046;-74
2022/08/10 05:54:24;;;;;;;2.55;0.70;;;;;;;;;;12743632;27;20050;-74
2022/08/10 06:00:27;;;;;;;2.45;1.30;;;;;;;;;;12743544;27;20031;-74
2022/08/10 06:06:32;;;;;;;1.42;0.93;;;;;;;;;;12744914;27;20027;-74
2022/08/10 06:12:34;;;;;;;1.48;1.38;;;;;;;;;;12743324;27;20030;-74
2022/08/10 06:18:36;;;;;;;3.65;1.58;;;;;;;;;;12742823;27;20043;-74
2022/08/10 06:24:39;;;;;;;1.20;1.10;;;;;;;;;;12743910;27;20023;-74
2022/08/10 06:30:41;;;;;;;1.83;1.13;;;;;;;;;;12742329;27;20034;-73
2022/08/10 06:36:44;;;;;;;1.20;1.10;;;;;;;;;;12743230;27;20043;-73
2022/08/10 06:42:49;;;;;;;0.75;0.75;;;;;;;;;;12742035;27;20054;-74
2022/08/10 06:48:53;;;;;;;0.73;0.73;;;;;;;;;;12743060;27;20023;-73
2022/08/10 06:54:57;;;;;;;1.45;0.90;;;;;;;;;;12742236;27;20043;-74
2022/08/10 07:01:01;;;;;;;0.88;0.85;;;;;;;;;;12743378;27;20027;-74
2022/08/10 07:07:04;;;;;;;1.80;0.70;;;;;;;;;;12740457;28;20066;-74
2022/08/10 07:13:06;;;;;;;0.95;0.70;;;;;;;;;;12742788;28;20035;-75
2022/08/10 07:19:12;;;;;;;1.42;0.90;;;;;;;;;;12741120;27;20055;-73
2022/08/10 07:25:23;;;;;;;1.00;0.70;;;;;;;;;;12725887;28;20035;-74
2022/08/10 07:31:25;;;;;;;1.50;0.70;;;;;;;;;;12744132;27;20042;-75
2022/08/10 07:37:28;;;;;;;2.30;1.00;;;;;;;;;;12743825;28;20069;-74
2022/08/10 07:43:34;;;;;;;0.98;0.90;;;;;;;;;;12743080;28;20149;-74
2022/08/10 07:49:38;;;;;;;2.75;0.95;;;;;;;;;;12742332;28;20641;-74
2022/08/10 07:55:40;;;;;;;1.23;0.95;;;;;;;;;;12743482;28;20369;-75
2022/08/10 08:01:47;;;;;;;1.98;0.80;;;;;;;;;;12742122;28;20035;-74
2022/08/10 08:07:49;;;;;;;1.63;0.90;;;;;;;;;;12728660;27;20027;-74
2022/08/10 08:13:52;;;;;;;0.77;0.60;;;;;;;;;;12752201;27;20038;-74
2022/08/10 08:19:57;;;;;;;1.70;0.98;;;;;;;;;;12751725;27;20395;-75
2022/08/10 08:25:59;;;;;;;1.00;0.90;;;;;;;;;;12750208;27;20369;-74
2022/08/10 08:32:02;;;;;;;2.25;0.90;;;;;;;;;;12750114;27;20484;-74
2022/08/10 08:38:05;;;;;;;1.20;0.80;;;;;;;;;;12751068;27;20515;-73
2022/08/10 08:44:22;;;;;;;0.98;0.60;;;;;;;;;;12750575;27;20058;-73
2022/08/10 08:50:24;;;;;;;2.38;1.00;;;;;;;;;;12750313;27;20042;-73
2022/08/10 08:56:49;;;;;;;0.70;0.70;;;;;;;;;;12749947;27;20035;-74
2022/08/10 09:02:57;;;;;;;1.75;0.70;;;;;;;;;;12748649;27;20039;-74
2022/08/10 09:09:17;;;;;;;1.23;0.80;;;;;;;;;;12750137;27;20054;-75
2022/08/10 09:15:27;;;;;;;1.50;0.70;;;;;;;;;;12749587;27;20051;-74
2022/08/10 09:21:29;;;;;;;1.27;0.90;;;;;;;;;;12747561;27;20027;-73
2022/08/10 09:27:54;;;;;;;1.17;0.80;;;;;;;;;;12747982;27;20049;-74
2022/08/10 09:34:10;;;;;;;2.45;1.00;;;;;;;;;;12747265;27;20051;-74
2022/08/10 09:40:32;;;;;;;1.70;0.70;;;;;;;;;;12747269;27;20051;-74
2022/08/10 09:46:42;;;;;;;2.55;0.60;;;;;;;;;;12747090;27;20043;-74
2022/08/10 09:52:44;;;;;;;1.33;0.80;;;;;;;;;;12746743;27;20031;-74
2022/08/10 09:59:02;;;;;;;2.30;0.70;;;;;;;;;;12745990;27;20054;-74
2022/08/10 10:05:10;;;;;;;1.55;0.40;;;;;;;;;;12747401;27;20031;-74
2022/08/10 10:11:16;;;;;;;1.02;0.70;;;;;;;;;;12748048;27;20043;-75
2022/08/10 10:17:20;;;;;;;1.02;0.70;;;;;;;;;;12746670;27;20035;-75
2022/08/10 10:23:40;;;;;;;0.70;0.70;;;;;;;;;;12746616;27;20035;-75
2022/08/10 10:29:48;;;;;;;0.63;0.57;;;;;;;;;;12744219;27;20023;-74
2022/08/10 10:35:53;;;;;;;1.20;0.70;;;;;;;;;;12744460;27;20392;-74
2022/08/10 10:42:00;;;;;;;0.50;0.50;;;;;;;;;;12745676;27;20055;-74
2022/08/10 10:48:05;;;;;;;0.90;0.52;;;;;;;;;;12727377;27;20031;-75
2022/08/10 10:54:15;;;;;;;0.35;0.35;;;;;;;;;;12742839;27;20042;-74
2022/08/10 11:00:20;;;;;;;1.80;0.90;;;;;;;;;;12741280;28;20032;-74
2022/08/10 11:06:28;;;;;;;0.70;0.50;;;;;;;;;;12741620;28;20031;-75
2022/08/10 11:12:32;;;;;;;0.90;0.55;;;;;;;;;;12741857;28;20042;-75
2022/08/10 11:18:40;;;;;;;1.08;0.40;;;;;;;;;;12742052;28;20051;-75
2022/08/10 11:24:48;;;;;;;0.75;0.40;;;;;;;;;;12740623;28;20031;-75
2022/08/10 11:30:50;;;;;;;1.38;0.70;;;;;;;;;;12742157;28;20027;-75
2022/08/10 11:37:04;;;;;;;1.45;0.70;;;;;;;;;;12723359;28;20050;-74
2022/08/10 11:43:08;;;;;;;0.80;0.50;;;;;;;;;;12748424;27;20051;-75
2022/08/10 11:49:37;;;;;;;0.68;0.50;;;;;;;;;;12750040;27;20069;-74
2022/08/10 11:55:39;;;;;;;1.20;0.40;;;;;;;;;;12727573;27;20062;-75
2022/08/10 12:01:43;;;;;;;0.68;0.68;;;;;;;;;;12732648;27;20043;-74
2022/08/10 12:07:49;;;;;;;0.75;0.50;;;;;;;;;;12748989;27;20042;-75
2022/08/10 12:14:10;;;;;;;0.50;0.50;;;;;;;;;;12748912;27;20036;-75
2022/08/10 12:20:38;;;;;;;0.40;0.30;;;;;;;;;;12748577;27;20376;-74
2022/08/10 12:26:44;;;;;;;1.17;0.35;;;;;;;;;;12746625;27;20043;-74
2022/08/10 12:33:04;;;;;;;1.77;0.40;;;;;;;;;;12749217;27;20042;-73
2022/08/10 12:39:11;;;;;;;0.90;0.40;;;;;;;;;;12748735;27;20061;-74
2022/08/10 12:45:16;;;;;;;0.95;0.45;;;;;;;;;;12748506;27;20042;-73
2022/08/10 12:51:21;;;;;;;0.80;0.50;;;;;;;;;;12747235;27;20023;-73
2022/08/10 12:57:25;;;;;;;1.38;0.40;;;;;;;;;;12747451;27;20039;-73
2022/08/10 13:03:28;;;;;;;0.60;0.40;;;;;;;;;;12747563;27;20039;-73
2022/08/10 13:09:30;;;;;;;0.30;0.30;;;;;;;;;;12746471;27;20046;-73
2022/08/10 13:15:33;;;;;;;0.70;0.25;;;;;;;;;;12745772;27;20043;-73
2022/08/10 13:21:37;;;;;;;2.35;0.60;;;;;;;;;;12728399;27;20507;-73
2022/08/10 13:27:40;;;;;;;0.47;0.40;;;;;;;;;;12746392;27;20034;-74
2022/08/10 13:33:45;;;;;;;0.40;0.30;;;;;;;;;;12745237;27;20034;-73
2022/08/10 13:39:48;;;;;;;0.35;0.30;;;;;;;;;;12746692;27;20047;-73
2022/08/10 13:45:51;;;;;;;0.50;0.47;;;;;;;;;;12745514;27;20042;-73
2022/08/10 13:51:54;;;;;;;0.47;0.30;;;;;;;;;;12743925;27;20034;-73
2022/08/10 13:57:57;;;;;;;0.65;0.20;;;;;;;;;;12744813;27;20143;-73
2022/08/10 14:04:00;;;;;;;0.20;0.20;;;;;;;;;;12743304;27;20019;-73
2022/08/10 14:10:07;;;;;;;0.47;0.20;;;;;;;;;;12743509;27;20031;-73
2022/08/10 14:16:10;;;;;;;0.88;0.30;;;;;;;;;;12744344;27;20054;-74
2022/08/10 14:22:17;;;;;;;0.30;0.30;;;;;;;;;;12744813;27;20038;-74
2022/08/10 14:28:25;;;;;;;0.20;0.20;;;;;;;;;;12743616;27;20023;-74
2022/08/10 14:34:30;;;;;;;0.30;0.25;;;;;;;;;;12741915;27;20031;-74
2022/08/10 14:40:39;;;;;;;0.30;0.20;;;;;;;;;;12742020;27;20058;-74
2022/08/10 14:46:46;;;;;;;0.28;0.28;;;;;;;;;;12742201;27;20043;-75
2022/08/10 14:52:50;;;;;;;0.30;0.20;;;;;;;;;;12742578;27;20050;-74
2022/08/10 14:59:00;;;;;;;0.30;0.30;;;;;;;;;;12741698;28;20043;-74
2022/08/10 15:05:02;;;;;;;0.57;0.30;;;;;;;;;;12742167;28;20035;-73
2022/08/10 15:11:06;;;;;;;0.20;0.10;;;;;;;;;;12743727;28;20027;-73
2022/08/10 15:17:08;;;;;;;0.38;0.30;;;;;;;;;;12749257;27;20043;-74
2022/08/10 15:23:11;;;;;;;1.00;0.55;;;;;;;;;;12753776;27;20035;-75
2022/08/10 15:29:15;;;;;;;0.73;0.30;;;;;;;;;;12753640;27;20038;-75
2022/08/10 15:41:39;;;;;;;0.30;0.25;;;;;;;;;;12754933;27;20047;-75
2022/08/10 15:47:41;;;;;;;1.27;0.30;;;;;;;;;;12752838;27;20031;-75
2022/08/10 15:53:49;;;;;;;0.63;0.20;;;;;;;;;;12752804;27;20027;-75
2022/08/10 15:59:56;;;;;;;0.20;0.20;;;;;;;;;;12735231;27;20058;-75
2022/08/10 16:06:00;;;;;;;0.40;0.10;;;;;;;;;;12751879;27;20054;-74
2022/08/10 16:12:14;;;;;;;1.15;0.30;;;;;;;;;;12751954;27;20031;-75
2022/08/10 16:18:17;;;;;;;0.50;0.40;;;;;;;;;;12751363;27;20047;-74
2022/08/10 16:24:19;;;;;;;0.57;0.47;;;;;;;;;;12751147;27;20392;-74
2022/08/10 16:30:21;;;;;;;0.47;0.25;;;;;;;;;;12749380;27;20487;-75
2022/08/10 16:36:30;;;;;;;1.25;0.30;;;;;;;;;;12751824;27;20054;-74
2022/08/10 16:42:34;;;;;;;0.45;0.32;;;;;;;;;;12733201;27;20051;-76
2022/08/10 16:48:37;;;;;;;1.00;0.38;;;;;;;;;;12732231;27;20047;-74
2022/08/10 16:54:39;;;;;;;0.70;0.30;;;;;;;;;;12750153;27;20035;-74
2022/08/10 17:00:44;;;;;;;0.20;0.20;;;;;;;;;;12748838;27;20046;-74
2022/08/10 17:06:51;;;;;;;1.30;0.30;;;;;;;;;;12750051;27;20046;-74
2022/08/10 17:12:53;;;;;;;0.32;0.30;;;;;;;;;;12750641;27;20480;-75
2022/08/10 17:18:56;;;;;;;0.50;0.50;;;;;;;;;;12749279;27;20043;-73
2022/08/10 17:25:07;;;;;;;1.73;1.63;;;;;;;;;;12748711;27;20042;-74
2022/08/10 17:31:30;;;;;;;3.05;1.75;;;;;;;;;;12747927;27;20361;-74
2022/08/10 17:37:33;;;;;;;1.60;1.42;;;;;;;;;;12729436;27;20392;-74
2022/08/10 17:43:36;;;;;;;1.15;1.00;;;;;;;;;;12747042;27;20059;-73
2022/08/10 17:49:39;;;;;;;1.48;0.80;;;;;;;;;;12746592;27;20038;-73
2022/08/10 17:55:43;;;;;;;0.82;0.82;;;;;;;;;;12729462;27;20046;-73
2022/08/10 18:01:46;;;;;;;2.45;1.10;;;;;;;;;;12747294;27;20031;-73
2022/08/10 18:07:51;;;;;;;0.90;0.90;;;;;;;;;;12745843;27;20035;-74
2022/08/10 18:13:55;;;;;;;1.15;1.00;;;;;;;;;;12745838;27;20031;-74
2022/08/10 18:19:58;;;;;;;1.63;1.10;;;;;;;;;;12746274;27;20046;-73
2022/08/10 18:26:03;;;;;;;1.30;1.00;;;;;;;;;;12745291;27;20031;-73
2022/08/10 18:32:05;;;;;;;1.33;1.08;;;;;;;;;;12744997;27;20027;-74
2022/08/10 18:38:08;;;;;;;2.15;1.23;;;;;;;;;;12744339;27;20047;-73
2022/08/10 18:44:18;;;;;;;1.10;1.00;;;;;;;;;;12744719;27;20047;-74
2022/08/10 18:50:23;;;;;;;1.90;1.03;;;;;;;;;;12743512;27;20031;-74
2022/08/10 18:56:35;;;;;;;1.23;0.98;;;;;;;;;;12743971;27;20035;-74
2022/08/10 19:02:57;;;;;;;0.90;0.80;;;;;;;;;;12745221;28;20035;-74
2022/08/10 19:08:59;;;;;;;1.52;1.02;;;;;;;;;;12743455;28;20101;-74
2022/08/10 19:15:08;;;;;;;1.15;1.00;;;;;;;;;;12743496;28;20047;-74
2022/08/10 19:21:16;;;;;;;1.70;0.90;;;;;;;;;;12740907;28;20031;-74
2022/08/10 19:27:31;;;;;;;0.82;0.70;;;;;;;;;;12725239;28;20031;-74
2022/08/10 19:33:49;;;;;;;1.88;1.00;;;;;;;;;;12743432;28;20054;-73
2022/08/10 19:40:03;;;;;;;2.58;1.00;;;;;;;;;;12743594;28;20047;-73
2022/08/10 19:46:05;;;;;;;0.68;0.68;;;;;;;;;;12743044;28;20044;-73
2022/08/10 19:52:10;;;;;;;1.02;0.70;;;;;;;;;;12742725;28;20038;-73
2022/08/10 19:58:18;;;;;;;0.98;0.60;;;;;;;;;;12743753;27;20039;-73
2022/08/10 20:04:21;;;;;;;1.25;0.90;;;;;;;;;;12750218;27;20031;-73
2022/08/10 20:10:23;;;;;;;2.95;1.10;;;;;;;;;;12753704;27;20054;-74
2022/08/10 20:16:28;;;;;;;1.40;1.00;;;;;;;;;;12753254;27;20055;-73
2022/08/10 20:22:33;;;;;;;1.17;1.08;;;;;;;;;;12751068;27;20031;-73
2022/08/10 20:28:42;;;;;;;1.10;1.00;;;;;;;;;;12752908;27;20056;-73
2022/08/10 20:34:52;;;;;;;1.40;1.10;;;;;;;;;;12750591;27;20042;-73
2022/08/10 20:41:11;;;;;;;2.20;1.60;;;;;;;;;;12750552;27;20051;-74
2022/08/10 20:47:34;;;;;;;1.42;1.10;;;;;;;;;;12751242;27;20047;-74
2022/08/10 20:53:39;;;;;;;1.55;1.25;;;;;;;;;;12750891;27;20038;-74
2022/08/10 20:59:50;;;;;;;1.30;1.20;;;;;;;;;;12749475;27;20065;-74
2022/08/10 21:06:13;;;;;;;2.28;1.30;;;;;;;;;;12749370;27;20027;-75
2022/08/10 21:12:18;;;;;;;1.40;1.30;;;;;;;;;;12750535;27;20038;-74
2022/08/10 21:18:40;;;;;;;2.63;1.30;;;;;;;;;;12750418;27;20039;-73
2022/08/10 21:24:51;;;;;;;3.03;1.42;;;;;;;;;;12748384;27;20035;-74
2022/08/10 23:01:38;;;;;;;1.23;0.90;;;;;;;;;;12745705;27;20049;-74
2022/08/10 23:07:46;;;;;;;1.02;0.80;;;;;;;;;;12735855;28;20369;-74
2022/08/10 23:13:49;;;;;;;1.25;0.93;;;;;;;;;;12743965;28;20035;-74
2022/08/10 23:20:09;;;;;;;1.08;0.98;;;;;;;;;;12744886;28;20047;-74
2022/08/10 23:26:14;;;;;;;2.33;0.90;;;;;;;;;;12743889;28;20034;-73
2022/08/10 23:32:18;;;;;;;0.70;0.70;;;;;;;;;;12743677;28;20043;-73
2022/08/10 23:38:21;;;;;;;1.05;0.95;;;;;;;;;;12749635;27;20113;-74
2022/08/10 23:44:24;;;;;;;1.20;1.00;;;;;;;;;;12753365;27;20043;-73
2022/08/10 23:50:27;;;;;;;0.93;0.90;;;;;;;;;;12754192;27;20411;-73
2022/08/10 23:56:30;;;;;;;1.10;1.00;;;;;;;;;;12752609;27;20058;-73
